首页
METAR-TAF:

METAR-TAF

机场 :

恰斯拉夫, 捷克共和国

纬度: 49-56-23N, 经度: 15-22-55E, 海拔: 242米

当前天气观测

该预报发布于34分钟前的17:30 UTC
风速6节,风向西
温度 24°C
湿度 47%
气压 1016 hPa
能见度10公里或以上
1500米以下无云,无积雨云

METAR: LKCV 041730Z 26006KT CAVOK 24/12 Q1016 NOSIG RMK BLU BLU

时间: 20:04 (18:04 UTC)

预报

该预报发布于7小时和4分钟前的11:00 UTC
预报有效从04日的 12点(UTC)到 05日的 12点(UTC)
风速8节,风向西转西北
能见度10公里或以上
1500米以下无云,无积雨云
成为
从 04日的 18点(UTC)到 04日的 20点(UTC)
风速8节,风向西转西南
短暂存在
从 05日的 09点(UTC)到 05日的 12点(UTC)
风速14节,风向西转西南
多云层高于4000英尺

TAF: LKCV 041100Z 0412/0512 29008KT CAVOK BECMG 0418/0420 24008KT TEMPO 0509/0512 24014KT BKN040

超过4000个机场的气象观测和天气预报(METAR&TAF报告)。

可查询的气象台以黄色和红色小点在地图上表示。

将鼠标移到小点上方,可查看气象台名称。

然后点击查看天气观测和预报。

如需切换地图:点击带黑十字的绿色按钮放大地图;点击带横线的绿色按钮缩小地图;或者点击绿色箭头查看邻近地区的地图。


METAR-TAF: